Terminal Aerodrome Forecast
Issued by NWS Wilmington, OH

Current Version | Previous Version | Text Only | Print | Product List | Glossary Off
Versions: 1 2 3 4 5 6 7 8 9 10 11 12 13 14 15 16 17 18 19 20 21 22 23 24 25 26 27

000
FTUS41 KILN 201736
TAFCVG
TAF
KCVG 201736Z 2018/2124 23008G14KT P6SM BKN028 OVC035
     FM202100 20007KT P6SM BKN035
     FM210400 17004KT P6SM BKN025
     FM210700 17005KT P6SM OVC015
     FM210900 18005KT 5SM BR OVC007
     FM211500 18007KT P6SM BKN012
     FM211800 19009KT P6SM VCSH BKN035=

USA.gov is the U.S. government's official web portal to all federal, state and local government web resources and services.